Time;durP1;ratioP1;P1;durP2;ratioP2;P2;SDS_P1;SDS_P2;PMS_P1;PMS_P2;Temp;Humidity;BMP_temperature;BMP_pressure;BME280_temperature;BME280_humidity;BME280_pressure;Samples;Min_cycle;Max_cycle;Signal;HPM_P1;HPM_P2
2022/01/19 00:01:29;;;;;;;38.10;14.00;;;;;;;-1.74;82.15;100071.99;106225;1277;138391;-85
2022/01/19 00:03:55;;;;;;;38.20;15.40;;;;;;;-1.73;82.31;100071.51;106255;1277;22566;-86
2022/01/19 00:06:21;;;;;;;32.50;12.30;;;;;;;-1.72;82.19;100067.51;106111;1277;138627;-85
2022/01/19 00:08:48;;;;;;;26.00;11.50;;;;;;;-1.68;82.14;100061.92;105942;1277;23138;-83
2022/01/19 00:11:14;;;;;;;28.60;12.00;;;;;;;-1.67;82.25;100057.17;106109;1277;22667;-84
2022/01/19 00:13:41;;;;;;;29.10;11.30;;;;;;;-1.67;82.31;100051.99;106301;1277;137918;-85
2022/01/19 00:16:08;;;;;;;30.30;11.30;;;;;;;-1.66;82.28;100050.37;106341;1277;22544;-86
2022/01/19 00:18:34;;;;;;;31.70;12.00;;;;;;;-1.66;82.53;100045.89;106176;1278;139186;-84
2022/01/19 00:21:01;;;;;;;34.20;12.60;;;;;;;-1.65;82.61;100034.23;106217;1277;26598;-86
2022/01/19 00:23:27;;;;;;;31.90;12.40;;;;;;;-1.63;82.56;100031.19;106141;1277;22554;-85
2022/01/19 00:25:55;;;;;;;34.70;12.50;;;;;;;-1.59;82.71;100030.30;106098;1277;139304;-86
2022/01/19 00:28:22;;;;;;;28.30;12.20;;;;;;;-1.55;82.86;100030.69;106256;1277;25450;-85
2022/01/19 00:30:49;;;;;;;26.60;11.70;;;;;;;-1.52;82.77;100034.19;105968;1277;138232;-88
2022/01/19 00:33:18;;;;;;;34.10;10.20;;;;;;;-1.52;83.00;100035.25;106052;1277;23119;-83
2022/01/19 00:35:45;;;;;;;27.60;11.60;;;;;;;-1.54;82.97;100029.52;106037;1277;22573;-86
2022/01/19 00:38:12;;;;;;;27.70;12.20;;;;;;;-1.55;83.13;100028.92;106200;1277;138769;-84
2022/01/19 00:40:43;;;;;;;25.50;12.70;;;;;;;-1.53;83.00;100040.89;106069;1277;25477;-85
2022/01/19 00:43:09;;;;;;;25.60;11.50;;;;;;;-1.51;83.14;100045.71;106201;1277;138139;-86
2022/01/19 00:45:35;;;;;;;33.30;12.50;;;;;;;-1.48;83.13;100047.98;106157;1277;24218;-84
2022/01/19 00:48:02;;;;;;;32.40;12.00;;;;;;;-1.47;83.57;100054.95;106103;1278;137978;-84
2022/01/19 00:50:30;;;;;;;28.40;12.30;;;;;;;-1.47;83.36;100055.31;106051;1277;22531;-86
2022/01/19 00:52:57;;;;;;;32.10;14.00;;;;;;;-1.47;83.58;100052.52;106320;1277;24478;-87
2022/01/19 00:55:27;;;;;;;39.20;13.50;;;;;;;-1.46;83.50;100053.25;105976;1277;138081;-85
2022/01/19 00:57:54;;;;;;;33.30;12.60;;;;;;;-1.44;83.51;100053.65;105968;1277;22609;-86
2022/01/19 01:00:25;;;;;;;32.20;13.90;;;;;;;-1.41;83.48;100049.64;106304;1277;138620;-85
2022/01/19 01:02:53;;;;;;;30.70;13.90;;;;;;;-1.39;83.75;100052.30;106398;1277;25430;-86
2022/01/19 01:05:20;;;;;;;30.20;12.80;;;;;;;-1.35;83.75;100057.00;106141;1277;22559;-86
2022/01/19 01:07:49;;;;;;;33.80;13.50;;;;;;;-1.34;83.74;100064.90;105923;1278;137926;-86
2022/01/19 01:10:17;;;;;;;33.90;13.10;;;;;;;-1.31;83.90;100066.48;106256;1277;22570;-86
2022/01/19 01:12:47;;;;;;;39.60;13.80;;;;;;;-1.27;83.89;100051.35;106303;1277;138894;-86
2022/01/19 01:15:35;;;;;;;32.50;11.80;;;;;;;-1.22;84.03;100042.56;106196;1277;23969;-87
2022/01/19 01:20:33;;;;;;;27.10;13.50;;;;;;;-1.14;84.01;100033.14;106144;1277;24400;-87
2022/01/19 01:23:00;;;;;;;;;;;;;;;-1.11;83.95;100018.64;105998;1277;22530;-86
2022/01/19 01:25:26;;;;;;;31.50;12.00;;;;;;;-1.10;83.64;100011.91;106115;1277;124314;-85
2022/01/19 01:27:53;;;;;;;34.50;13.90;;;;;;;-1.08;83.82;100011.05;106329;1277;22707;-86
2022/01/19 01:30:21;;;;;;;30.40;12.60;;;;;;;-1.06;83.78;100001.10;106152;1277;138431;-85
2022/01/19 01:32:50;;;;;;;36.80;14.00;;;;;;;-1.04;83.66;99998.27;106319;1277;22583;-85
2022/01/19 01:35:16;;;;;;;37.70;14.00;;;;;;;-1.04;83.63;99996.05;106297;1277;22716;-85
2022/01/19 01:37:43;;;;;;;44.00;14.80;;;;;;;-1.05;83.70;99988.32;106178;1277;137897;-85
2022/01/19 01:40:15;;;;;;;37.50;13.70;;;;;;;-1.01;83.83;99988.52;106435;1277;22691;-86
2022/01/19 01:42:45;;;;;;;38.20;14.30;;;;;;;-0.98;83.85;99984.85;106248;1277;138675;-85
2022/01/19 01:45:15;;;;;;;38.20;13.80;;;;;;;-0.95;83.55;99983.74;106394;1277;23326;-86
2022/01/19 01:47:49;;;;;;;41.10;14.10;;;;;;;-0.93;83.41;99975.92;106140;1277;23120;-85
2022/01/19 01:55:27;;;;;;;38.10;14.30;;;;;;;-0.92;83.65;99938.06;105935;1280;138404;-86
2022/01/19 01:57:57;;;;;;;39.60;14.60;;;;;;;-0.91;83.58;99930.95;106020;1280;22662;-86
2022/01/19 02:00:27;;;;;;;47.60;16.30;;;;;;;-0.88;83.57;99931.95;105768;1280;138094;-86
2022/01/19 02:02:55;;;;;;;33.60;14.20;;;;;;;-0.84;83.75;99939.62;106040;1280;25374;-88
2022/01/19 02:05:23;;;;;;;38.10;15.90;;;;;;;-0.80;83.73;99938.36;105894;1279;22572;-85
2022/01/19 02:15:50;;;;;;;47.80;16.50;;;;;;;-0.75;83.45;99931.23;105869;1277;22560;-87
2022/01/19 02:23:51;;;;;;;44.30;17.60;;;;;;;-0.79;83.26;99915.27;106270;1277;24240;-88
2022/01/19 02:26:33;;;;;;;43.30;15.10;;;;;;;-0.79;83.33;99911.40;105940;1277;138640;-87
2022/01/19 02:42:44;;;;;;;37.00;14.20;;;;;;;-0.82;83.15;99908.04;105663;1277;139728;-83
2022/01/19 02:50:27;;;;;;;39.50;14.80;;;;;;;-0.80;83.32;99906.10;105588;1277;138271;-86
2022/01/19 02:52:54;;;;;;;37.60;12.40;;;;;;;-0.81;83.27;99903.52;105752;1277;22586;-84
2022/01/19 02:55:20;;;;;;;35.20;12.90;;;;;;;-0.83;83.04;99902.80;105585;1280;137871;-86
2022/01/19 02:57:47;;;;;;;36.80;13.70;;;;;;;-0.85;83.07;99899.77;105858;1277;24320;-86
2022/01/19 03:11:19;;;;;;;29.50;12.90;;;;;;;-0.82;83.22;99862.05;105949;1275;24285;-85
2022/01/19 03:13:46;;;;;;;32.70;13.80;;;;;;;-0.80;83.57;99855.48;105943;1277;137820;-85
2022/01/19 03:16:16;;;;;;;34.80;14.40;;;;;;;-0.79;83.34;99856.42;106010;1277;22632;-85
2022/01/19 03:18:42;;;;;;;38.70;13.00;;;;;;;-0.77;83.37;99854.50;106181;1277;138343;-85
2022/01/19 03:21:09;;;;;;;38.80;14.30;;;;;;;-0.75;83.29;99851.52;105692;1277;22580;-86
2022/01/19 03:23:35;;;;;;;42.60;15.40;;;;;;;-0.73;83.44;99849.52;105655;1277;24292;-85
2022/01/19 03:26:06;;;;;;;48.50;17.70;;;;;;;-0.74;83.45;99847.67;105798;1280;137954;-85
2022/01/19 03:28:34;;;;;;;49.00;19.40;;;;;;;-0.74;83.52;99851.05;105987;1277;22851;-85
2022/01/19 03:31:02;;;;;;;38.60;17.60;;;;;;;-0.75;83.64;99852.53;106180;1277;138511;-85
2022/01/19 03:33:30;;;;;;;41.30;17.70;;;;;;;-0.74;83.29;99851.24;105976;1277;25408;-85
2022/01/19 03:35:56;;;;;;;36.00;16.60;;;;;;;-0.72;83.47;99850.66;106027;1277;22544;-85
2022/01/19 03:38:23;;;;;;;42.10;15.80;;;;;;;-0.71;83.73;99848.23;105853;1277;137672;-85
2022/01/19 03:40:50;;;;;;;46.10;15.10;;;;;;;-0.70;83.32;99845.84;106001;1277;24212;-85
2022/01/19 03:43:18;;;;;;;37.40;15.50;;;;;;;-0.72;83.42;99836.95;105778;1277;138011;-86
2022/01/19 03:46:12;;;;;;;48.80;16.00;;;;;;;-0.73;83.37;99830.96;105644;1277;22565;-86
2022/01/19 03:48:45;;;;;;;34.70;13.60;;;;;;;-0.72;83.48;99827.52;105621;1277;138568;-85
2022/01/19 03:51:12;;;;;;;38.80;14.80;;;;;;;-0.70;83.43;99825.85;106082;1277;22777;-85
2022/01/19 03:53:39;;;;;;;34.90;12.80;;;;;;;-0.67;83.45;99825.05;105882;1277;27075;-85
2022/01/19 03:56:06;;;;;;;35.20;13.90;;;;;;;-0.65;83.45;99824.71;106034;1277;137759;-85
2022/01/19 03:58:33;;;;;;;34.00;14.40;;;;;;;-0.66;83.46;99823.86;105823;1278;22605;-86
2022/01/19 04:01:02;;;;;;;42.30;13.10;;;;;;;-0.66;83.18;99827.16;105731;1277;138589;-86
2022/01/19 04:03:56;;;;;;;37.40;14.50;;;;;;;-0.70;83.14;99826.77;106059;1277;24293;-86
2022/01/19 04:08:47;;;;;;;34.50;12.00;;;;;;;-0.78;83.53;99826.38;105925;1277;138311;-86
2022/01/19 04:11:16;;;;;;;25.00;9.90;;;;;;;-0.78;83.00;99823.90;105843;1280;26634;-86
2022/01/19 04:16:28;;;;;;;31.90;13.30;;;;;;;-0.85;83.03;99829.55;105931;1277;22598;-86
2022/01/19 04:19:05;;;;;;;35.40;12.40;;;;;;;-0.89;83.30;99828.30;105943;1277;138133;-85
2022/01/19 04:21:31;;;;;;;32.00;12.70;;;;;;;-0.92;83.25;99828.21;105983;1279;22551;-86
2022/01/19 04:23:58;;;;;;;31.10;12.10;;;;;;;-0.93;83.64;99818.66;105853;1280;22563;-86
2022/01/19 04:26:24;;;;;;;30.10;11.50;;;;;;;-0.90;83.57;99818.08;105822;1277;138718;-84
2022/01/19 04:28:51;;;;;;;26.40;11.20;;;;;;;-0.88;83.56;99811.94;106141;1277;22645;-85
2022/01/19 04:31:17;;;;;;;27.00;10.50;;;;;;;-0.86;83.37;99810.03;105992;1277;138345;-88
2022/01/19 04:33:44;;;;;;;26.80;10.80;;;;;;;-0.86;83.18;99802.55;105636;1277;22714;-86
2022/01/19 04:44:55;;;;;;;30.40;11.70;;;;;;;-0.87;83.10;99779.45;105823;1277;138932;-85
2022/01/19 05:06:38;;;;;;;15.60;7.50;;;;;;;-0.80;82.18;99728.38;106082;1277;24356;-85
2022/01/19 05:09:26;;;;;;;17.90;8.70;;;;;;;-0.80;81.79;99727.09;105725;1277;137364;-85
2022/01/19 05:14:37;;;;;;;21.90;9.40;;;;;;;-0.82;81.90;99722.10;106089;1277;137674;-85
2022/01/19 05:17:03;;;;;;;23.00;8.70;;;;;;;-0.82;81.89;99722.10;106347;1277;24314;-85
2022/01/19 05:19:30;;;;;;;17.10;8.00;;;;;;;-0.81;81.82;99723.40;106026;1277;138435;-85
2022/01/19 05:21:57;;;;;;;22.30;9.20;;;;;;;-0.79;81.79;99716.43;106193;1277;25319;-85
2022/01/19 05:24:42;;;;;;;24.00;9.50;;;;;;;-0.78;81.67;99711.01;106025;1277;22619;-87
2022/01/19 05:27:19;;;;;;;18.90;8.80;;;;;;;-0.78;81.65;99711.77;106265;1277;137444;-84
2022/01/19 05:29:50;;;;;;;22.30;8.80;;;;;;;-0.80;81.79;99712.81;106325;1277;22566;-85
2022/01/19 05:32:18;;;;;;;23.80;9.50;;;;;;;-0.80;81.95;99716.08;105950;1277;137624;-84
2022/01/19 05:34:45;;;;;;;25.60;9.50;;;;;;;-0.82;81.62;99716.52;106200;1277;25460;-84
2022/01/19 05:37:38;;;;;;;23.70;8.70;;;;;;;-0.82;81.54;99711.77;106079;1277;138021;-85
2022/01/19 05:40:22;;;;;;;25.90;10.70;;;;;;;-0.82;81.73;99703.91;106168;1277;22567;-86
2022/01/19 05:42:54;;;;;;;21.60;9.10;;;;;;;-0.82;81.72;99706.48;106086;1277;137968;-84
2022/01/19 05:45:21;;;;;;;24.70;10.50;;;;;;;-0.85;81.76;99702.77;106040;1277;22589;-84
2022/01/19 05:47:48;;;;;;;24.60;10.60;;;;;;;-0.86;81.75;99698.05;106053;1280;25317;-84
2022/01/19 05:50:15;;;;;;;28.60;11.80;;;;;;;-0.88;81.88;99691.45;106074;1277;138199;-85
2022/01/19 05:52:42;;;;;;;28.40;12.70;;;;;;;-0.88;81.81;99690.05;106237;1277;22727;-83
2022/01/19 05:55:09;;;;;;;36.90;14.70;;;;;;;-0.88;81.87;99684.16;106143;1277;137991;-84
2022/01/19 05:57:35;;;;;;;34.00;13.20;;;;;;;-0.89;82.04;99674.11;106161;1277;23964;-84
2022/01/19 06:00:05;;;;;;;35.50;14.60;;;;;;;-0.92;81.89;99668.35;106322;1277;23831;-84
2022/01/19 06:02:49;;;;;;;31.50;12.10;;;;;;;-0.96;82.03;99673.09;106352;1277;137649;-83
2022/01/19 06:05:20;;;;;;;25.60;11.00;;;;;;;-1.00;82.01;99662.73;106272;1277;22544;-85
2022/01/19 06:08:16;;;;;;;27.80;11.40;;;;;;;-1.02;82.07;99664.39;106073;1277;138429;-84
2022/01/19 06:10:55;;;;;;;29.90;11.80;;;;;;;-1.03;81.75;99664.48;106361;1277;25360;-84
2022/01/19 06:13:23;;;;;;;30.80;13.00;;;;;;;-1.05;82.23;99665.38;106153;1277;138605;-85
2022/01/19 06:15:49;;;;;;;26.70;11.10;;;;;;;-1.06;81.94;99668.88;106366;1277;25263;-84
2022/01/19 06:18:17;;;;;;;34.30;11.00;;;;;;;-1.09;82.11;99666.11;106282;1280;22551;-84
2022/01/19 06:20:44;;;;;;;32.30;12.20;;;;;;;-1.11;82.18;99672.17;106305;1277;137926;-84
2022/01/19 06:23:12;;;;;;;29.40;12.30;;;;;;;-1.12;82.21;99660.17;106136;1277;22566;-85
2022/01/19 06:25:48;;;;;;;27.60;11.90;;;;;;;-1.09;82.15;99662.20;105977;1277;138208;-85
2022/01/19 06:28:14;;;;;;;29.40;12.50;;;;;;;-1.07;82.05;99659.50;106298;1277;22547;-86
2022/01/19 06:30:41;;;;;;;27.20;12.00;;;;;;;-1.04;82.29;99657.45;106233;1277;23167;-85
2022/01/19 06:33:07;;;;;;;23.20;11.20;;;;;;;-1.02;82.30;99655.86;106138;1277;137596;-84
2022/01/19 06:35:33;;;;;;;22.30;10.90;;;;;;;-1.02;82.09;99654.04;106066;1277;24579;-83
2022/01/19 06:38:08;;;;;;;23.20;11.80;;;;;;;-1.02;81.95;99655.17;106205;1277;137721;-84
2022/01/19 06:40:53;;;;;;;25.60;11.60;;;;;;;-1.03;82.11;99652.35;106164;1277;22715;-84
2022/01/19 06:43:19;;;;;;;22.10;10.80;;;;;;;-1.00;81.94;99655.85;106001;1280;138409;-84
2022/01/19 06:45:45;;;;;;;25.60;12.20;;;;;;;-0.99;81.97;99645.01;106306;1277;22567;-84
2022/01/19 06:48:16;;;;;;;29.80;12.90;;;;;;;-0.99;81.74;99647.72;106231;1277;25503;-84
2022/01/19 06:50:43;;;;;;;31.30;13.10;;;;;;;-1.02;81.35;99636.95;106105;1277;138237;-84
2022/01/19 06:53:10;;;;;;;32.70;12.80;;;;;;;-1.06;81.47;99634.29;106261;1277;22569;-84
2022/01/19 06:55:38;;;;;;;28.70;13.60;;;;;;;-1.11;81.42;99642.45;106009;1277;137985;-84
2022/01/19 06:58:04;;;;;;;27.50;12.80;;;;;;;-1.16;81.25;99638.58;106008;1277;24390;-83
2022/01/19 07:00:43;;;;;;;26.90;12.90;;;;;;;-1.18;81.09;99631.45;106245;1277;22591;-84
2022/01/19 07:03:16;;;;;;;27.20;12.00;;;;;;;-1.20;81.14;99628.44;106497;1277;137658;-83
2022/01/19 07:05:48;;;;;;;22.30;11.10;;;;;;;-1.21;81.28;99632.83;106365;1277;25280;-84
2022/01/19 07:08:53;;;;;;;30.60;11.60;;;;;;;-1.25;81.23;99633.89;105534;1286;137928;-84
2022/01/19 07:11:19;;;;;;;30.20;11.30;;;;;;;-1.29;81.08;99636.20;105406;1286;24280;-84
2022/01/19 07:13:46;;;;;;;28.20;11.80;;;;;;;-1.32;81.09;99634.88;105480;1285;138581;-84
2022/01/19 07:16:15;;;;;;;23.70;10.90;;;;;;;-1.33;81.10;99633.55;105608;1286;24312;-84
2022/01/19 07:18:42;;;;;;;27.90;10.70;;;;;;;-1.31;80.95;99632.52;105571;1287;22725;-84
2022/01/19 07:21:08;;;;;;;25.70;12.30;;;;;;;-1.31;81.13;99629.61;105616;1285;138218;-84
2022/01/19 07:23:54;;;;;;;24.30;11.20;;;;;;;-1.29;80.96;99623.98;105677;1285;22723;-83
2022/01/19 07:26:21;;;;;;;27.00;13.50;;;;;;;-1.29;80.86;99619.88;105336;1285;138011;-84
2022/01/19 07:28:48;;;;;;;23.60;11.90;;;;;;;-1.31;80.79;99614.29;105735;1285;24162;-84
2022/01/19 07:31:15;;;;;;;29.40;12.80;;;;;;;-1.31;80.93;99613.06;105467;1285;137822;-85
2022/01/19 07:33:42;;;;;;;34.30;11.80;;;;;;;-1.30;80.96;99605.29;105662;1285;24276;-84
2022/01/19 07:36:09;;;;;;;27.60;11.50;;;;;;;-1.26;80.91;99606.02;105708;1285;23381;-83
2022/01/19 07:38:36;;;;;;;27.50;12.10;;;;;;;-1.24;80.73;99599.21;105464;1286;138829;-86
2022/01/19 07:41:02;;;;;;;29.40;12.50;;;;;;;-1.23;80.77;99594.65;106252;1280;23415;-84
2022/01/19 07:43:31;;;;;;;24.70;11.80;;;;;;;-1.21;80.63;99590.41;105952;1280;137806;-86
2022/01/19 07:46:09;;;;;;;31.10;13.30;;;;;;;-1.21;80.44;99592.90;106280;1279;28886;-84
2022/01/19 07:48:59;;;;;;;22.20;11.40;;;;;;;-1.21;80.49;99591.70;106400;1280;138291;-84
2022/01/19 07:51:32;;;;;;;24.40;11.70;;;;;;;-1.20;80.43;99591.73;106265;1280;23370;-84
2022/01/19 07:54:12;;;;;;;26.50;12.70;;;;;;;-1.15;80.40;99590.04;106263;1279;22571;-84
2022/01/19 07:56:57;;;;;;;26.20;13.30;;;;;;;-1.09;80.37;99591.10;106274;1280;137743;-84
2022/01/19 07:59:44;;;;;;;25.30;12.60;;;;;;;-1.04;80.35;99580.66;105833;1281;22544;-84
2022/01/19 08:02:13;;;;;;;26.00;10.50;;;;;;;-1.00;80.10;99572.96;106109;1280;138397;-83
2022/01/19 08:04:58;;;;;;;24.70;12.20;;;;;;;-0.98;79.80;99569.36;105992;1281;24451;-85
2022/01/19 08:07:25;;;;;;;31.10;11.70;;;;;;;-0.93;80.17;99573.97;105903;1281;138275;-84
2022/01/19 08:09:52;;;;;;;35.30;13.30;;;;;;;-0.90;80.08;99570.78;106317;1278;25275;-86
2022/01/19 08:12:18;;;;;;;27.00;12.50;;;;;;;-0.85;79.67;99570.14;106301;1279;23676;-83
2022/01/19 08:14:48;;;;;;;30.30;12.90;;;;;;;-0.82;79.40;99567.70;106168;1277;139204;-84
2022/01/19 08:17:19;;;;;;;28.40;11.90;;;;;;;-0.76;79.37;99567.69;106700;1277;23953;-86
2022/01/19 08:19:47;;;;;;;23.40;10.40;;;;;;;-0.69;79.54;99558.14;106280;1277;137710;-86
2022/01/19 08:22:18;;;;;;;24.20;9.70;;;;;;;-0.64;79.26;99559.29;106367;1277;24309;-88
2022/01/19 08:25:03;;;;;;;21.80;9.00;;;;;;;-0.62;79.11;99553.67;106330;1277;138720;-84
2022/01/19 08:27:33;;;;;;;20.60;8.70;;;;;;;-0.61;78.82;99554.67;106122;1277;25499;-92
2022/01/19 08:30:01;;;;;;;32.80;11.20;;;;;;;-0.62;78.86;99551.56;106071;1278;23288;-83
2022/01/19 08:32:28;;;;;;;27.40;9.40;;;;;;;-0.61;78.45;99547.89;106079;1277;138418;-83
2022/01/19 08:35:20;;;;;;;31.10;11.90;;;;;;;-0.57;78.41;99539.73;106041;1277;25715;-87
2022/01/19 08:37:58;;;;;;;33.00;12.10;;;;;;;-0.53;78.69;99536.63;106321;1277;137665;-82
2022/01/19 08:40:28;;;;;;;21.10;10.80;;;;;;;-0.50;78.60;99535.30;106643;1277;22576;-80
2022/01/19 08:43:05;;;;;;;33.30;11.60;;;;;;;-0.47;78.57;99525.55;106287;1277;138262;-82
2022/01/19 08:45:32;;;;;;;22.40;10.40;;;;;;;-0.45;78.36;99516.27;105994;1278;22720;-82
2022/01/19 08:47:59;;;;;;;23.20;10.30;;;;;;;-0.45;78.35;99513.55;106400;1278;23960;-81
2022/01/19 08:50:35;;;;;;;26.80;11.40;;;;;;;-0.41;78.36;99512.44;106423;1277;138619;-82
2022/01/19 08:53:06;;;;;;;23.80;11.20;;;;;;;-0.35;78.22;99508.09;106364;1277;22550;-83
2022/01/19 08:55:45;;;;;;;26.30;11.30;;;;;;;-0.30;78.45;99501.43;106257;1280;138000;-86
2022/01/19 08:58:13;;;;;;;21.50;10.10;;;;;;;-0.24;78.25;99504.70;106594;1277;22710;-88
2022/01/19 09:00:43;;;;;;;27.00;11.40;;;;;;;-0.18;78.39;99504.91;106117;1277;24233;-86
2022/01/19 09:03:09;;;;;;;28.80;12.00;;;;;;;-0.13;78.02;99497.47;106294;1277;137799;-85
2022/01/19 09:05:36;;;;;;;25.60;12.20;;;;;;;-0.08;77.79;99490.40;106703;1277;25627;-85
2022/01/19 09:08:03;;;;;;;21.80;9.80;;;;;;;-0.02;77.82;99487.08;106480;1277;137738;-84
2022/01/19 09:10:30;;;;;;;33.90;13.50;;;;;;;0.04;77.39;99482.35;106446;1277;23231;-83
2022/01/19 09:12:56;;;;;;;22.40;8.90;;;;;;;0.10;76.77;99475.85;106264;1277;138528;-87
2022/01/19 09:15:23;;;;;;;21.40;10.30;;;;;;;0.16;76.75;99467.98;106232;1280;22774;-83
2022/01/19 09:17:52;;;;;;;21.20;9.20;;;;;;;0.24;76.65;99468.85;106072;1277;24229;-84
2022/01/19 09:20:19;;;;;;;29.50;11.00;;;;;;;0.33;76.63;99469.33;106203;1277;137684;-84
2022/01/19 09:22:45;;;;;;;21.60;8.70;;;;;;;0.41;76.63;99467.13;106173;1277;22578;-84
2022/01/19 09:25:13;;;;;;;25.90;10.30;;;;;;;0.48;76.22;99461.39;106006;1277;138207;-83
2022/01/19 09:27:39;;;;;;;19.30;9.40;;;;;;;0.54;75.86;99460.23;106060;1277;23307;-84
2022/01/19 09:30:16;;;;;;;22.80;9.50;;;;;;;0.61;75.67;99453.34;105977;1280;22579;-83
2022/01/19 09:32:49;;;;;;;28.90;11.60;;;;;;;0.65;75.59;99446.80;105888;1280;138372;-84
2022/01/19 09:35:23;;;;;;;21.70;8.60;;;;;;;0.71;75.22;99449.63;106194;1277;24497;-84
2022/01/19 09:37:50;;;;;;;27.40;11.60;;;;;;;0.80;75.20;99444.19;106021;1278;137613;-84
2022/01/19 09:40:17;;;;;;;21.10;10.20;;;;;;;0.86;74.42;99434.88;106247;1277;25445;-85
2022/01/19 09:42:47;;;;;;;37.60;14.00;;;;;;;0.90;73.78;99429.58;106244;1277;22566;-84
2022/01/19 09:45:13;;;;;;;27.60;10.90;;;;;;;0.91;73.21;99427.88;105945;1277;141479;-85
2022/01/19 09:47:40;;;;;;;24.10;10.70;;;;;;;0.89;72.79;99417.36;105947;1277;209236;-84
2022/01/19 09:50:07;;;;;;;20.00;9.60;;;;;;;0.86;72.71;99410.71;106008;1277;137973;-88
2022/01/19 09:52:37;;;;;;;18.20;8.20;;;;;;;0.85;72.73;99413.98;106201;1277;22566;-85
2022/01/19 09:55:04;;;;;;;13.70;8.00;;;;;;;0.87;73.07;99415.81;106173;1277;137687;-83
2022/01/19 09:57:33;;;;;;;23.00;9.10;;;;;;;0.88;72.54;99415.45;105975;1280;24042;-86
2022/01/19 09:59:59;;;;;;;15.50;7.90;;;;;;;0.89;72.43;99409.31;106026;1277;22569;-83
2022/01/19 10:02:26;;;;;;;21.40;8.80;;;;;;;0.90;72.53;99404.00;106152;1277;137920;-85
2022/01/19 10:04:52;;;;;;;18.80;9.50;;;;;;;0.96;72.78;99396.83;106572;1277;22559;-84
2022/01/19 10:07:25;;;;;;;19.60;9.00;;;;;;;1.06;72.68;99385.22;106234;1277;138156;-85
2022/01/19 10:10:02;;;;;;;17.20;8.00;;;;;;;1.17;72.54;99382.27;106392;1277;24353;-83
2022/01/19 10:18:25;;;;;;;16.60;8.40;;;;;;;1.42;71.45;99360.84;106716;1277;22855;-84
2022/01/19 10:21:13;;;;;;;16.20;8.00;;;;;;;1.46;71.54;99358.77;106316;1277;137544;-84
2022/01/19 10:23:48;;;;;;;19.20;8.00;;;;;;;1.51;71.31;99359.98;106328;1278;24221;-85
2022/01/19 10:26:23;;;;;;;13.80;7.70;;;;;;;1.57;71.19;99357.45;106010;1277;137756;-86
2022/01/19 10:28:59;;;;;;;12.00;6.80;;;;;;;1.63;70.97;99353.44;106110;1280;24432;-84
2022/01/19 10:31:27;;;;;;;14.20;7.00;;;;;;;1.67;70.86;99356.90;106246;1277;138688;-80
2022/01/19 10:34:16;;;;;;;13.00;6.90;;;;;;;1.78;70.52;99349.50;106169;1277;24248;-83
2022/01/19 10:36:50;;;;;;;13.50;6.60;;;;;;;1.85;69.81;99342.09;106367;1278;22570;-84
2022/01/19 10:39:19;;;;;;;13.90;6.80;;;;;;;1.90;69.71;99334.77;106072;1281;137516;-86
2022/01/19 10:42:15;;;;;;;17.80;8.00;;;;;;;1.94;69.50;99329.43;105881;1281;22548;-84
2022/01/19 10:44:45;;;;;;;15.90;7.30;;;;;;;1.98;69.23;99323.62;105856;1281;137944;-85
2022/01/19 10:47:11;;;;;;;14.20;6.70;;;;;;;1.98;69.02;99317.02;106066;1281;24299;-84
2022/01/19 10:49:57;;;;;;;13.80;7.60;;;;;;;2.00;69.46;99313.58;105779;1281;137888;-84
2022/01/19 10:52:34;;;;;;;15.30;6.90;;;;;;;2.04;69.43;99307.70;106164;1281;24241;-86
2022/01/19 10:55:02;;;;;;;13.10;7.20;;;;;;;2.10;69.39;99299.98;105872;1281;137613;-83
2022/01/19 10:57:31;;;;;;;16.70;8.30;;;;;;;2.14;69.27;99296.34;106211;1280;24212;-83
2022/01/19 11:00:18;;;;;;;14.30;8.00;;;;;;;2.18;68.89;99291.77;106075;1280;26510;-84
2022/01/19 11:02:47;;;;;;;15.20;7.80;;;;;;;2.17;68.73;99286.80;105896;1281;137437;-84
2022/01/19 11:05:13;;;;;;;14.80;7.20;;;;;;;2.18;68.36;99286.32;106077;1281;24778;-83
2022/01/19 11:07:40;;;;;;;16.90;8.10;;;;;;;2.20;68.64;99287.08;105968;1280;137780;-86
2022/01/19 11:10:12;;;;;;;11.70;7.40;;;;;;;2.22;68.38;99281.02;106134;1278;22557;-83
2022/01/19 11:12:49;;;;;;;16.00;7.40;;;;;;;2.23;68.39;99274.46;106555;1277;25267;-83
2022/01/19 11:15:19;;;;;;;14.10;8.20;;;;;;;2.25;68.41;99266.57;106178;1278;137179;-82
2022/01/19 11:17:47;;;;;;;17.20;8.50;;;;;;;2.29;68.57;99262.59;106158;1277;24224;-83
2022/01/19 11:20:17;;;;;;;23.90;8.90;;;;;;;2.29;68.19;99258.63;106015;1278;137446;-82
2022/01/19 11:23:15;;;;;;;16.40;8.00;;;;;;;2.27;68.61;99254.73;106146;1281;22592;-83
2022/01/19 11:25:47;;;;;;;17.60;7.70;;;;;;;2.33;68.55;99245.84;105940;1281;138799;-84
2022/01/19 11:28:33;;;;;;;18.10;8.00;;;;;;;2.39;68.31;99242.60;106229;1277;22546;-84
2022/01/19 11:31:07;;;;;;;16.70;7.90;;;;;;;2.42;67.32;99233.36;105880;1281;138131;-83
2022/01/19 11:33:53;;;;;;;14.80;7.70;;;;;;;2.43;67.92;99226.33;106314;1278;25383;-84
2022/01/19 11:36:21;;;;;;;16.00;7.90;;;;;;;2.49;67.96;99221.64;106232;1278;25429;-82
2022/01/19 11:38:53;;;;;;;17.10;8.60;;;;;;;2.57;68.23;99218.95;106073;1277;137300;-83
2022/01/19 11:41:20;;;;;;;14.70;7.60;;;;;;;2.63;68.15;99212.60;105807;1278;26175;-83
2022/01/19 11:44:02;;;;;;;15.80;7.70;;;;;;;2.66;67.59;99212.08;106069;1278;137384;-83
2022/01/19 11:46:32;;;;;;;19.60;8.20;;;;;;;2.68;67.69;99202.30;106107;1280;25531;-83
2022/01/19 11:49:01;;;;;;;14.80;7.60;;;;;;;2.67;67.83;99194.88;106121;1278;137596;-82
2022/01/19 11:51:43;;;;;;;17.20;8.00;;;;;;;2.67;67.77;99190.00;105922;1277;30567;-83
2022/01/19 11:54:17;;;;;;;14.60;8.30;;;;;;;2.66;67.93;99184.06;106239;1278;22558;-83
2022/01/19 11:57:12;;;;;;;18.50;9.40;;;;;;;2.61;67.93;99183.20;106163;1280;137566;-83
2022/01/19 11:59:38;;;;;;;17.70;8.80;;;;;;;2.55;68.56;99180.61;105994;1277;22575;-83
2022/01/19 12:02:45;;;;;;;18.20;9.40;;;;;;;2.51;68.50;99175.02;106115;1277;138088;-83
2022/01/19 12:05:17;;;;;;;15.10;8.80;;;;;;;2.46;68.47;99169.64;106212;1278;25257;-83
2022/01/19 12:07:54;;;;;;;17.20;9.30;;;;;;;2.47;68.67;99166.03;106026;1277;138588;-83
2022/01/19 12:10:38;;;;;;;18.60;9.30;;;;;;;2.47;68.82;99161.77;106322;1277;24277;-83
2022/01/19 12:13:31;;;;;;;19.40;10.30;;;;;;;2.49;68.80;99162.87;106202;1277;137565;-83
2022/01/19 12:16:19;;;;;;;19.30;8.70;;;;;;;2.50;69.18;99156.34;106287;1277;22563;-83
2022/01/19 12:19:01;;;;;;;16.20;8.20;;;;;;;2.51;69.22;99151.66;106167;1277;25269;-83
2022/01/19 12:21:34;;;;;;;18.80;8.90;;;;;;;2.52;69.08;99146.75;105631;1277;138006;-84
2022/01/19 12:24:34;;;;;;;14.40;7.90;;;;;;;2.51;69.04;99140.98;106148;1277;22569;-83
2022/01/19 12:27:19;;;;;;;15.50;8.50;;;;;;;2.48;69.04;99131.71;106036;1277;138587;-83
2022/01/19 12:30:00;;;;;;;20.70;9.40;;;;;;;2.46;69.12;99124.06;105942;1278;22568;-83
2022/01/19 12:32:26;;;;;;;15.90;8.80;;;;;;;2.48;69.75;99114.95;105862;1277;137635;-82
2022/01/19 12:35:15;;;;;;;12.50;7.70;;;;;;;2.50;69.53;99114.17;105866;1280;22862;-82
2022/01/19 12:38:00;;;;;;;22.00;9.10;;;;;;;2.53;69.29;99109.54;105939;1277;137674;-83
2022/01/19 12:40:33;;;;;;;18.60;8.90;;;;;;;2.53;69.37;99103.26;106091;1277;26045;-82
2022/01/19 12:43:08;;;;;;;16.80;9.40;;;;;;;2.53;69.40;99091.06;106035;1277;22714;-83
2022/01/19 12:45:51;;;;;;;18.40;8.90;;;;;;;2.52;69.33;99085.96;105874;1278;137697;-83
2022/01/19 12:48:47;;;;;;;16.00;8.00;;;;;;;2.58;69.12;99083.85;106035;1277;24440;-83
2022/01/19 12:51:38;;;;;;;18.80;9.50;;;;;;;2.66;69.08;99072.33;105938;1277;137432;-83
2022/01/19 12:54:05;;;;;;;16.10;9.20;;;;;;;2.77;69.10;99064.05;106157;1277;22712;-82
2022/01/19 12:56:34;;;;;;;16.70;9.20;;;;;;;2.86;69.00;99065.65;105739;1280;137305;-83
2022/01/19 12:59:07;;;;;;;17.70;8.60;;;;;;;2.95;68.70;99054.99;105990;1278;22556;-83
2022/01/19 13:01:35;;;;;;;17.10;9.70;;;;;;;3.03;68.64;99056.84;106781;1277;138229;-82
2022/01/19 13:04:01;;;;;;;18.30;9.50;;;;;;;3.10;68.34;99052.14;106639;1277;26202;-83